LiveATC.Net - Listen to live air traffic control over the Internet! Contact for advertising information

ICAO: K1H0  IATA: 1H0   Airport: Creve Coeur Airport
City: St. Louis   State/Province: Missouri
Country: United States   Continent: North America
KSTL METAR Weather: KSTL 252151Z 17016G21KT 10SM BKN039 OVC060 15/05 A3017 RMK AO2 RAB07E22 SLP216 P0000 T01500050
K1H0 Flight Activity (FlightAware)
K1H0 Airport Info   (AirNav) (iFlightPlanner)
K1H0 VFR Sectional Chart   (iFlightPlanner) 
K1H0 IFR Low Chart   (iFlightPlanner) 
K1H0 CTAF/Unicom
Feed Status: UP   Listeners: 2
Listen right in your browser - requires Flash (in browser, requires Flash)
Click here to listen with your own player (launches your MP3 player)
K1H0 CTAF/Unicom Audio Archives
Creve Coeur CTAF122.800


Unauthorized use prohibited. See Terms of Service

Find LiveATC Audio Streams

Airport/ARTCC Code

(e.g., 124.400, 128.75)
Site-wide search

Browse LiveATC Feeds
LiveATC Coverage Map
Top 50 LiveATC Feeds
Bad Weather Areas

Offer a LiveATC Feed
Press Inquiries

LiveATC on iPhone
LiveATC on Android

Windows Phone
Windows 8/10

LiveATC Mobile
(Mobile browser)

ATC Audio Archives
Interesting Recordings

LiveATC Forums

Home Page
Make a Donation
LiveATC Bookstore

Terms of Use
Privacy Policy

ATC/Radar Sites
U.S. ARTCC Freqs
Canadian Air Freqs


FAA Airport Status
Nat'l Airspace Status
Arrival Demand Charts

Server Software By:

Please make a donation to help us keep growing!